createdAt,value
2023-05-20T00:01:46.420Z,63.94
2023-05-20T00:04:31.838Z,63.79
2023-05-20T00:07:17.193Z,63.74
2023-05-20T00:10:02.641Z,63.57
2023-05-20T00:12:48.040Z,63.87
2023-05-20T00:15:34.498Z,63.84
2023-05-20T00:18:20.257Z,63.99
2023-05-20T00:21:05.717Z,63.54
2023-05-20T00:23:51.645Z,63.63
2023-05-20T00:26:36.667Z,64.04
2023-05-20T00:29:22.231Z,63.83
2023-05-20T00:32:07.630Z,64.29
2023-05-20T00:34:57.067Z,64.65
2023-05-20T00:37:42.589Z,64.87
2023-05-20T00:40:27.934Z,64.95
2023-05-20T00:43:13.297Z,64.93
2023-05-20T00:45:58.851Z,65.32
2023-05-20T00:48:44.592Z,65.66
2023-05-20T00:51:29.711Z,65.36
2023-05-20T00:54:15.041Z,65.61
2023-05-20T00:57:00.279Z,66.10
2023-05-20T00:59:45.846Z,66.12
2023-05-20T01:02:31.092Z,66.40
2023-05-20T01:05:16.443Z,66.67
2023-05-20T01:08:01.774Z,66.89
2023-05-20T01:10:51.427Z,67.11
2023-05-20T01:13:46.708Z,67.27
2023-05-20T01:16:32.786Z,67.48
2023-05-20T01:19:31.165Z,67.89
2023-05-20T01:22:16.607Z,67.99
2023-05-20T01:25:01.992Z,68.01
2023-05-20T01:27:48.292Z,68.32
2023-05-20T01:30:38.775Z,68.43
2023-05-20T01:33:25.326Z,68.81
2023-05-20T01:36:11.287Z,69.04
2023-05-20T01:38:58.327Z,69.46
2023-05-20T01:41:45.092Z,69.57
2023-05-20T01:44:30.900Z,69.54
2023-05-20T01:47:16.156Z,69.88
2023-05-20T01:50:01.402Z,70.01
2023-05-20T01:52:46.933Z,70.08
2023-05-20T01:55:32.466Z,70.17
2023-05-20T01:58:17.869Z,70.47
2023-05-20T02:01:03.209Z,70.41
2023-05-20T02:03:48.497Z,70.84
2023-05-20T02:06:33.393Z,70.73
2023-05-20T02:09:18.862Z,71.18
2023-05-20T02:12:04.030Z,71.38
2023-05-20T02:14:49.202Z,71.16
2023-05-20T02:17:34.700Z,70.80
2023-05-20T02:20:20.125Z,71.77
2023-05-20T02:23:05.314Z,71.93
2023-05-20T02:25:50.629Z,72.19
2023-05-20T02:28:35.953Z,72.51
2023-05-20T02:31:21.450Z,72.06
2023-05-20T02:34:06.844Z,72.41
2023-05-20T02:36:52.231Z,72.57
2023-05-20T02:39:37.413Z,73.20
2023-05-20T02:42:22.478Z,73.03
2023-05-20T02:45:08.263Z,73.00
2023-05-20T02:47:53.603Z,73.21
2023-05-20T02:50:39.322Z,73.40
2023-05-20T02:53:24.595Z,73.81
2023-05-20T02:56:09.920Z,73.86
2023-05-20T02:58:55.398Z,73.93
2023-05-20T03:01:40.752Z,73.76
2023-05-20T03:04:26.746Z,73.91
2023-05-20T03:07:11.948Z,74.07
2023-05-20T03:09:57.733Z,74.42
2023-05-20T03:12:42.888Z,74.57
2023-05-20T03:15:28.325Z,74.22
2023-05-20T03:18:13.900Z,75.01
2023-05-20T03:20:59.162Z,75.60
2023-05-20T03:23:44.497Z,75.98
2023-05-20T03:26:29.930Z,76.02
2023-05-20T03:29:16.336Z,76.66
2023-05-20T03:32:02.317Z,76.95
2023-05-20T03:34:47.385Z,77.12
2023-05-20T03:37:32.821Z,77.21
2023-05-20T03:40:18.264Z,77.90
2023-05-20T03:43:03.523Z,78.30
2023-05-20T03:45:48.987Z,78.44
2023-05-20T03:48:34.303Z,78.88
2023-05-20T03:51:19.617Z,78.90
2023-05-20T03:54:04.976Z,78.81
2023-05-20T03:56:50.465Z,79.12
2023-05-20T03:59:35.604Z,79.73
2023-05-20T04:02:21.115Z,79.85
2023-05-20T04:05:06.976Z,79.98
2023-05-20T04:07:52.060Z,79.85
2023-05-20T04:10:37.466Z,80.14
2023-05-20T04:13:22.941Z,80.48
2023-05-20T04:16:08.368Z,80.39
2023-05-20T04:18:53.586Z,80.43
2023-05-20T04:21:39.068Z,80.67
2023-05-20T04:24:25.500Z,80.69
2023-05-20T04:27:10.703Z,80.40
2023-05-20T04:29:55.537Z,80.22
2023-05-20T04:32:40.498Z,80.18
2023-05-20T04:35:25.852Z,80.10
2023-05-20T04:38:11.094Z,80.02
2023-05-20T04:40:56.494Z,80.24
2023-05-20T04:43:41.608Z,80.25
2023-05-20T04:46:27.044Z,80.24
2023-05-20T04:49:11.970Z,80.11
2023-05-20T04:51:56.927Z,80.05
2023-05-20T04:54:42.216Z,80.22
2023-05-20T04:57:27.722Z,80.49
2023-05-20T05:00:13.612Z,80.72
2023-05-20T05:02:58.839Z,80.50
2023-05-20T05:05:44.456Z,80.35
2023-05-20T05:08:29.575Z,80.57
2023-05-20T05:11:14.987Z,80.54
2023-05-20T05:14:00.461Z,80.21
2023-05-20T05:16:46.104Z,79.94
2023-05-20T05:19:31.135Z,80.11
2023-05-20T05:22:16.456Z,79.94
2023-05-20T05:25:02.073Z,80.38
2023-05-20T05:27:47.175Z,80.23
2023-05-20T05:30:32.626Z,79.91
2023-05-20T05:33:18.081Z,79.50
2023-05-20T05:36:03.781Z,79.39
2023-05-20T05:38:48.884Z,79.58
2023-05-20T05:41:34.430Z,79.05
2023-05-20T05:44:19.842Z,79.39
2023-05-20T05:47:05.074Z,80.10
2023-05-20T05:49:50.211Z,80.39
2023-05-20T05:52:36.165Z,80.16
2023-05-20T05:55:21.470Z,80.38
2023-05-20T05:58:07.050Z,80.07
2023-05-20T06:00:52.501Z,80.82
2023-05-20T06:03:37.854Z,80.79
2023-05-20T06:06:23.184Z,80.95
2023-05-20T06:09:08.880Z,80.95
2023-05-20T06:11:54.130Z,80.82
2023-05-20T06:14:41.625Z,80.58
2023-05-20T06:17:26.832Z,80.20
2023-05-20T06:20:12.602Z,80.26
2023-05-20T06:22:57.873Z,80.55
2023-05-20T06:25:43.339Z,80.93
2023-05-20T06:28:29.773Z,80.13
2023-05-20T06:31:15.145Z,80.37
2023-05-20T06:34:02.047Z,79.96
2023-05-20T06:36:48.433Z,79.39
2023-05-20T06:39:33.764Z,79.95
2023-05-20T06:42:22.142Z,79.48
2023-05-20T06:45:08.069Z,79.85
2023-05-20T06:47:53.453Z,79.03
2023-05-20T06:50:38.733Z,78.69
2023-05-20T06:53:24.021Z,78.18
2023-05-20T06:56:08.864Z,79.04
2023-05-20T06:58:55.400Z,79.07
2023-05-20T07:01:40.560Z,78.25
2023-05-20T07:04:25.806Z,78.46
2023-05-20T07:07:11.391Z,78.58
2023-05-20T07:09:57.590Z,78.66
2023-05-20T07:12:45.903Z,78.38
2023-05-20T07:15:31.116Z,78.33
2023-05-20T07:18:18.337Z,78.43
2023-05-20T07:21:03.422Z,78.21
2023-05-20T07:23:48.532Z,77.89
2023-05-20T07:26:33.870Z,77.75
2023-05-20T07:29:19.195Z,77.76
2023-05-20T07:32:06.327Z,77.98
2023-05-20T07:34:51.277Z,77.69
2023-05-20T07:37:36.601Z,77.96
2023-05-20T07:40:22.410Z,77.74
2023-05-20T07:43:08.477Z,77.13
2023-05-20T07:45:53.546Z,76.82
2023-05-20T07:48:38.834Z,76.07
2023-05-20T07:51:24.583Z,75.95
2023-05-20T07:54:10.003Z,75.93
2023-05-20T07:56:55.416Z,75.15
2023-05-20T07:59:40.847Z,73.66
2023-05-20T08:02:26.399Z,73.16
2023-05-20T08:05:11.945Z,73.18
2023-05-20T08:07:56.911Z,73.21
2023-05-20T08:10:42.479Z,72.30
2023-05-20T08:13:28.049Z,72.20
2023-05-20T08:16:13.325Z,71.43
2023-05-20T08:18:58.559Z,71.48
2023-05-20T08:21:43.710Z,70.67
2023-05-20T08:24:28.736Z,70.85
2023-05-20T08:27:14.077Z,70.57
2023-05-20T08:30:01.026Z,70.01
2023-05-20T08:32:46.581Z,69.74
2023-05-20T08:35:32.081Z,69.51
2023-05-20T08:38:17.371Z,68.25
2023-05-20T08:41:04.334Z,68.16
2023-05-20T08:43:51.921Z,67.71
2023-05-20T08:46:38.208Z,67.47
2023-05-20T08:49:23.477Z,66.84
2023-05-20T08:52:11.339Z,66.65
2023-05-20T08:54:57.908Z,65.96
2023-05-20T08:57:43.136Z,65.50
2023-05-20T09:00:28.569Z,64.14
2023-05-20T09:03:14.110Z,63.84
2023-05-20T09:06:08.071Z,62.92
2023-05-20T09:08:53.157Z,62.84
2023-05-20T09:11:40.270Z,63.67
2023-05-20T09:14:25.552Z,63.68
2023-05-20T09:17:10.946Z,63.60
2023-05-20T09:19:56.754Z,63.29
2023-05-20T09:22:42.111Z,63.75
2023-05-20T09:25:27.760Z,63.10
2023-05-20T09:28:12.840Z,62.24
2023-05-20T09:30:59.211Z,62.08
2023-05-20T09:33:44.647Z,62.51
2023-05-20T09:40:13.426Z,59.87
2023-05-20T09:43:01.784Z,58.84
2023-05-20T09:45:47.689Z,59.49
2023-05-20T09:48:35.297Z,59.42
2023-05-20T09:51:23.459Z,58.81
2023-05-20T09:54:09.312Z,59.15
2023-05-20T09:56:54.960Z,58.98
2023-05-20T09:59:40.989Z,59.11
2023-05-20T10:02:26.947Z,59.36
2023-05-20T10:05:17.374Z,58.63
2023-05-20T10:08:31.631Z,59.04
2023-05-20T10:11:28.103Z,59.95
2023-05-20T10:14:16.626Z,59.82
2023-05-20T10:20:04.568Z,59.73
2023-05-20T10:22:57.888Z,59.00
2023-05-20T10:25:53.664Z,59.50
2023-05-20T10:28:41.137Z,59.38
2023-05-20T10:31:26.203Z,60.07
2023-05-20T10:34:24.129Z,60.26
2023-05-20T10:37:08.984Z,59.81
2023-05-20T10:40:10.094Z,59.06
2023-05-20T10:42:55.546Z,58.72
2023-05-20T10:45:52.560Z,57.99
2023-05-20T10:48:42.066Z,58.86
2023-05-20T10:51:28.955Z,59.11
2023-05-20T10:54:14.872Z,59.23
2023-05-20T10:57:00.374Z,58.75
2023-05-20T10:59:45.544Z,59.27
2023-05-20T11:02:30.985Z,58.82
2023-05-20T11:05:17.322Z,59.19
2023-05-20T11:08:07.928Z,58.77
2023-05-20T11:10:56.971Z,59.23
2023-05-20T11:13:42.078Z,60.00
2023-05-20T11:16:27.457Z,60.64
2023-05-20T11:19:16.346Z,60.42
2023-05-20T11:22:01.615Z,60.18
2023-05-20T11:24:47.238Z,61.40
2023-05-20T11:27:32.283Z,62.49
2023-05-20T11:30:18.260Z,62.46
2023-05-20T11:33:04.492Z,62.74
2023-05-20T11:35:52.266Z,63.36
2023-05-20T11:38:37.266Z,63.13
2023-05-20T11:41:29.316Z,63.19
2023-05-20T11:44:14.684Z,63.83
2023-05-20T11:47:02.189Z,63.40
2023-05-20T11:49:48.894Z,62.83
2023-05-20T11:52:34.392Z,62.58
2023-05-20T11:55:19.716Z,62.91
2023-05-20T11:58:04.554Z,62.99
2023-05-20T12:00:55.026Z,62.45
2023-05-20T12:03:42.429Z,62.79
2023-05-20T12:06:27.693Z,63.55
2023-05-20T12:09:13.286Z,62.92
2023-05-20T12:11:58.736Z,62.70
2023-05-20T12:14:44.328Z,61.91
2023-05-20T12:17:29.632Z,62.73
2023-05-20T12:20:17.083Z,63.02
2023-05-20T12:23:02.410Z,62.37
2023-05-20T12:25:48.005Z,63.32
2023-05-20T12:28:33.195Z,62.83
2023-05-20T12:31:18.542Z,62.53
2023-05-20T12:34:03.510Z,61.88
2023-05-20T12:36:49.020Z,61.46
2023-05-20T12:39:34.468Z,61.77
2023-05-20T12:42:19.798Z,61.94
2023-05-20T12:45:06.163Z,62.16
2023-05-20T12:47:51.505Z,61.61
2023-05-20T12:50:36.988Z,61.13
2023-05-20T12:53:23.011Z,61.08
2023-05-20T12:56:08.522Z,61.00
2023-05-20T12:58:53.781Z,61.62
2023-05-20T13:01:39.348Z,62.28
2023-05-20T13:04:24.411Z,62.45
2023-05-20T13:07:09.830Z,62.40
2023-05-20T13:09:55.355Z,61.99
2023-05-20T13:12:40.763Z,62.22
2023-05-20T13:15:25.959Z,62.31
2023-05-20T13:18:11.689Z,62.43
2023-05-20T13:20:56.937Z,62.83
2023-05-20T13:23:42.504Z,61.90
2023-05-20T13:26:27.569Z,61.75
2023-05-20T13:29:13.300Z,61.13
2023-05-20T13:32:00.959Z,60.66
2023-05-20T13:34:47.134Z,60.60
2023-05-20T13:37:32.566Z,60.45
2023-05-20T13:40:17.902Z,60.16
2023-05-20T13:43:03.262Z,59.95
2023-05-20T13:45:48.725Z,58.51
2023-05-20T13:48:33.992Z,58.93
2023-05-20T13:51:19.765Z,59.69
2023-05-20T13:54:05.063Z,59.37
2023-05-20T13:56:50.550Z,59.73
2023-05-20T13:59:36.010Z,60.75
2023-05-20T14:02:21.424Z,60.97
2023-05-20T14:05:08.834Z,61.38
2023-05-20T14:07:54.281Z,61.27
2023-05-20T14:10:40.224Z,61.45
2023-05-20T14:13:25.832Z,61.70
2023-05-20T14:16:11.640Z,61.56
2023-05-20T14:18:57.838Z,62.08
2023-05-20T14:21:43.819Z,61.85
2023-05-20T14:24:29.266Z,62.14
2023-05-20T14:27:14.850Z,62.28
2023-05-20T14:30:01.870Z,62.99
2023-05-20T14:32:47.558Z,62.75
2023-05-20T14:35:32.984Z,63.39
2023-05-20T14:38:18.345Z,63.01
2023-05-20T14:41:03.778Z,62.61
2023-05-20T14:43:49.240Z,62.58
2023-05-20T14:46:34.226Z,62.36
2023-05-20T14:49:19.701Z,63.61
2023-05-20T14:52:05.957Z,63.50
2023-05-20T14:54:50.865Z,63.68
2023-05-20T14:57:36.487Z,63.97
2023-05-20T15:00:21.735Z,64.02
2023-05-20T15:03:07.702Z,64.63
2023-05-20T15:05:52.800Z,64.90
2023-05-20T15:08:38.705Z,65.16
2023-05-20T15:11:24.259Z,65.30
2023-05-20T15:14:09.624Z,65.33
2023-05-20T15:16:55.177Z,65.83
2023-05-20T15:19:41.426Z,65.90
2023-05-20T15:22:27.152Z,66.13
2023-05-20T15:25:12.497Z,65.60
2023-05-20T15:27:57.767Z,66.36
2023-05-20T15:30:43.319Z,66.14
2023-05-20T15:33:28.725Z,66.26
2023-05-20T15:36:14.100Z,66.67
2023-05-20T15:38:58.994Z,67.21
2023-05-20T15:41:44.742Z,67.34
2023-05-20T15:44:29.975Z,67.56
2023-05-20T15:47:15.037Z,67.63
2023-05-20T15:50:00.253Z,67.70
2023-05-20T15:52:45.466Z,67.83
2023-05-20T15:55:31.003Z,67.66
2023-05-20T15:58:16.451Z,67.93
2023-05-20T16:01:01.408Z,67.90
2023-05-20T16:03:46.860Z,68.26
2023-05-20T16:06:33.956Z,68.78
2023-05-20T16:09:19.104Z,69.19
2023-05-20T16:12:05.925Z,68.94
2023-05-20T16:14:50.901Z,69.29
2023-05-20T16:17:36.986Z,68.82
2023-05-20T16:20:22.182Z,69.04
2023-05-20T16:23:07.433Z,69.11
2023-05-20T16:25:52.730Z,70.31
2023-05-20T16:28:40.993Z,70.32
2023-05-20T16:31:26.152Z,70.25
2023-05-20T16:34:11.621Z,70.63
2023-05-20T16:36:57.174Z,70.88
2023-05-20T16:39:42.745Z,71.05
2023-05-20T16:42:28.034Z,71.33
2023-05-20T16:45:13.644Z,71.50
2023-05-20T16:47:58.637Z,72.07
2023-05-20T16:50:43.989Z,71.54
2023-05-20T16:53:29.407Z,71.72
2023-05-20T16:56:15.073Z,70.99
2023-05-20T16:59:00.246Z,70.96
2023-05-20T17:01:45.902Z,71.21
2023-05-20T17:04:31.318Z,71.25
2023-05-20T17:07:16.706Z,71.86
2023-05-20T17:10:02.073Z,71.80
2023-05-20T17:12:47.438Z,71.98
2023-05-20T17:15:32.743Z,71.98
2023-05-20T17:18:18.202Z,71.75
2023-05-20T17:21:03.567Z,72.32
2023-05-20T17:23:49.006Z,72.64
2023-05-20T17:26:34.490Z,72.96
2023-05-20T17:29:19.680Z,73.05
2023-05-20T17:32:05.091Z,73.37
2023-05-20T17:34:50.476Z,73.46
2023-05-20T17:37:35.993Z,73.40
2023-05-20T17:40:21.526Z,73.73
2023-05-20T17:43:07.050Z,73.91
2023-05-20T17:45:52.573Z,73.51
2023-05-20T17:48:38.020Z,73.93
2023-05-20T17:51:23.206Z,74.09
2023-05-20T17:54:08.580Z,73.91
2023-05-20T17:56:54.079Z,74.13
2023-05-20T17:59:39.607Z,74.65
2023-05-20T18:02:24.996Z,74.15
2023-05-20T18:05:10.731Z,74.31
2023-05-20T18:07:56.332Z,74.78
2023-05-20T18:10:41.561Z,74.30
2023-05-20T18:13:27.041Z,74.13
2023-05-20T18:16:12.711Z,74.47
2023-05-20T18:18:58.048Z,74.71
2023-05-20T18:21:43.518Z,74.81
2023-05-20T18:24:28.646Z,75.04
2023-05-20T18:27:14.135Z,75.36
2023-05-20T18:29:59.475Z,75.34
2023-05-20T18:32:45.049Z,75.77
2023-05-20T18:35:30.422Z,75.66
2023-05-20T18:38:15.925Z,75.66
2023-05-20T18:41:01.230Z,75.67
2023-05-20T18:43:46.631Z,75.79
2023-05-20T18:46:32.014Z,75.93
2023-05-20T18:49:17.405Z,75.84
2023-05-20T18:52:04.081Z,75.98
2023-05-20T18:54:49.217Z,76.12
2023-05-20T18:57:37.818Z,75.68
2023-05-20T19:00:23.085Z,76.03
2023-05-20T19:03:08.534Z,76.33
2023-05-20T19:05:53.656Z,76.30
2023-05-20T19:08:39.918Z,76.13
2023-05-20T19:11:25.022Z,76.47
2023-05-20T19:14:10.573Z,75.82
2023-05-20T19:16:55.899Z,76.31
2023-05-20T19:19:41.442Z,76.33
2023-05-20T19:22:26.821Z,76.29
2023-05-20T19:25:12.125Z,76.75
2023-05-20T19:27:57.258Z,76.64
2023-05-20T19:30:42.718Z,77.18
2023-05-20T19:33:28.121Z,77.28
2023-05-20T19:36:13.119Z,77.21
2023-05-20T19:38:58.643Z,76.82
2023-05-20T19:41:43.928Z,76.49
2023-05-20T19:44:29.306Z,76.40
2023-05-20T19:47:14.535Z,76.14
2023-05-20T19:49:59.781Z,76.48
2023-05-20T19:52:45.060Z,76.39
2023-05-20T19:55:30.600Z,76.70
2023-05-20T19:58:16.006Z,76.66
2023-05-20T20:01:01.298Z,76.20
2023-05-20T20:03:46.728Z,76.98
2023-05-20T20:06:32.010Z,77.16
2023-05-20T20:09:18.355Z,77.73
2023-05-20T20:12:05.182Z,77.79
2023-05-20T20:14:51.271Z,78.21
2023-05-20T20:17:36.564Z,78.85
2023-05-20T20:20:21.956Z,78.81
2023-05-20T20:23:08.288Z,79.14
2023-05-20T20:25:53.371Z,78.63
2023-05-20T20:28:38.866Z,78.91
2023-05-20T20:31:23.939Z,79.13
2023-05-20T20:34:09.416Z,79.10
2023-05-20T20:36:55.065Z,79.12
2023-05-20T20:39:40.858Z,79.71
2023-05-20T20:42:25.949Z,80.32
2023-05-20T20:45:11.579Z,80.93
2023-05-20T20:47:56.918Z,81.39
2023-05-20T20:50:46.261Z,81.83
2023-05-20T20:53:31.519Z,81.27
2023-05-20T20:56:16.948Z,81.22
2023-05-20T20:59:05.982Z,81.35
2023-05-20T21:01:51.059Z,81.56
2023-05-20T21:04:36.562Z,81.29
2023-05-20T21:07:21.868Z,81.09
2023-05-20T21:10:09.141Z,81.09
2023-05-20T21:12:55.023Z,81.17
2023-05-20T21:15:40.459Z,81.32
2023-05-20T21:18:25.839Z,81.86
2023-05-20T21:21:11.192Z,81.93
2023-05-20T21:23:56.882Z,81.74
2023-05-20T21:26:42.158Z,81.78
2023-05-20T21:29:27.485Z,82.13
2023-05-20T21:32:12.904Z,81.77
2023-05-20T21:34:58.428Z,82.10
2023-05-20T21:37:43.588Z,81.99
2023-05-20T21:40:29.529Z,81.80
2023-05-20T21:43:14.847Z,82.16
2023-05-20T21:46:00.381Z,82.32
2023-05-20T21:48:45.526Z,82.32
2023-05-20T21:51:30.883Z,82.50
2023-05-20T21:54:16.246Z,82.89
2023-05-20T21:57:01.595Z,82.96
2023-05-20T21:59:47.019Z,82.95
2023-05-20T22:02:32.338Z,82.98
2023-05-20T22:05:17.823Z,82.78
2023-05-20T22:08:02.914Z,82.97
2023-05-20T22:10:48.412Z,82.89
2023-05-20T22:13:34.876Z,83.00
2023-05-20T22:16:20.450Z,82.98
2023-05-20T22:19:05.880Z,83.37
2023-05-20T22:21:51.348Z,83.75
2023-05-20T22:24:36.577Z,84.13
2023-05-20T22:27:22.111Z,84.73
2023-05-20T22:30:08.066Z,84.64
2023-05-20T22:32:53.315Z,84.93
2023-05-20T22:35:39.160Z,85.23
2023-05-20T22:38:24.134Z,85.25
2023-05-20T22:41:10.414Z,85.26
2023-05-20T22:43:56.090Z,85.30
2023-05-20T22:46:41.360Z,85.96
2023-05-20T22:49:26.789Z,86.32
2023-05-20T22:52:12.239Z,85.96
2023-05-20T22:55:00.564Z,86.52
2023-05-20T22:57:45.910Z,86.45
2023-05-20T23:00:31.271Z,86.72
2023-05-20T23:03:16.814Z,87.36
2023-05-20T23:06:02.279Z,87.66
2023-05-20T23:08:47.433Z,88.07
2023-05-20T23:11:32.848Z,88.50
2023-05-20T23:14:18.632Z,88.41
2023-05-20T23:17:03.887Z,88.84
2023-05-20T23:19:48.850Z,88.88
2023-05-20T23:22:34.213Z,89.07
2023-05-20T23:25:19.798Z,89.96
2023-05-20T23:28:05.319Z,89.94
2023-05-20T23:30:50.627Z,90.42
2023-05-20T23:33:35.595Z,90.27
2023-05-20T23:36:21.171Z,90.46
2023-05-20T23:39:06.516Z,90.53
2023-05-20T23:41:51.502Z,90.98
2023-05-20T23:44:36.880Z,90.99
2023-05-20T23:47:22.456Z,91.61
2023-05-20T23:50:07.919Z,91.71
2023-05-20T23:52:53.394Z,91.88
2023-05-20T23:55:39.036Z,92.31
2023-05-20T23:58:24.527Z,92.54
